• Join FlightAware (Why Join?)
  • Login
  • US Flag 
09:10AM EDT


 

Airport Tracker/Info


-or-


 

Live Flight TrackerFlight Track Log ✈ EJA589 ✈ 28-Apr-2013 ✈ KPBI - KGRR

Flight Track Log - Related Links

Times and Time Zones

All times are in EDT time to prevent confusion due to time zone crossing. See the EJA589 flight status page for this flight to view local times or setup timezone preferences in your user account.

Time Position Orientation Groundspeed Altitude Reporting Facility
EDT Latitude Longitude Course Direction KTS MPH feet Rate Location/Type
10:15AM 26.7547 -79.9997 332° Northwest 240 276 6,700  Level Miami Center
10:16AM 26.8206 -80.0456 328° Northwest 228 262 9,900 2,640 Climbing Miami Center
10:17AM 26.8333 -80.1275 280° West 220 253 12,000 1,800 Climbing Miami Center
10:18AM 26.8478 -80.2281 279° West 285 328 13,600 960 Climbing Miami Center
10:19AM 26.9064 -80.3449 336° Northwest  Level FlightAware Approximate
10:19AM 26.8889 -80.3364 293° West 337 388 14,000  Level Miami Center
10:20AM 27.0117 -80.3922 338° Northwest  Level FlightAware Approximate
10:20AM 26.9558 -80.4222 311° West 358 412 16,000  Level Miami Center
10:21AM 27.1146 -80.4454 332° Northwest  Level FlightAware Approximate
10:21AM 27.0106 -80.4892 313° West 363 418 17,900  Level Miami Center
10:22AM 27.0814 -80.5778 312° West 358 412 20,300 2,400 Climbing Miami Center
10:23AM 27.1461 -80.6567 313° West 348 400 22,700 1,320 Climbing Miami Center
10:24AM 27.2172 -80.7383 314° West 349 402 23,000 900 Climbing Miami Center
10:25AM 27.2919 -80.8275 313° West 369 425 24,600 1,860 Climbing Miami Center
10:26AM 27.3586 -80.9114 312° West 370 426 26,800 1,920 Climbing Miami Center
10:27AM 27.4250 -80.9933 312° West 364 419 28,500 1,620 Climbing Miami Center
10:28AM 27.4978 -81.0733 316° Northwest 364 419 30,100 1,560 Climbing Miami Center
10:29AM 27.5642 -81.1600 311° West 364 419 31,700 1,500 Climbing Miami Center
10:30AM 27.6328 -81.2422 313° West 364 419 33,200 1,500 Climbing Miami Center
10:31AM 27.6969 -81.3244 311° West 359 413 34,700 1,500 Climbing Miami Center
10:32AM 27.7675 -81.4069 314° West 354 407 36,300 1,500 Climbing Miami Center
10:33AM 27.8297 -81.4869 311° West 349 402 37,800 1,500 Climbing Miami Center
10:34AM 27.8939 -81.5647 313° West 349 402 39,300 1,080 Climbing Miami Center
10:35AM 27.9619 -81.6497 312° West 342 394 40,000 300 Climbing Miami Center
10:36AM 28.0322 -81.7350 313° West 347 399 40,000  Level Miami Center
10:39AM 28.2006 -81.9222 316° Northwest 380 437 40,000  Level Jacksonville Center
10:40AM 28.2867 -81.9922 324° Northwest 380 437 40,000  Level Jacksonville Center
10:41AM 28.3725 -82.0644 323° Northwest 380 437 40,000  Level Jacksonville Center
10:42AM 28.4586 -82.1300 326° Northwest 380 437 40,000  Level Jacksonville Center
10:43AM 28.5444 -82.1978 325° Northwest 380 437 40,000  Level Jacksonville Center
10:44AM 28.6306 -82.2681 324° Northwest 380 437 40,000  Level Jacksonville Center
10:45AM 28.7206 -82.3219 332° Northwest 375 432 40,000  Level Jacksonville Center
10:46AM 28.8144 -82.3547 343° North 356 410 40,000  Level Jacksonville Center
10:47AM 28.9147 -82.3850 345° North 363 418 40,000  Level Jacksonville Center
10:48AM 29.0131 -82.4153 345° North 368 423 40,000  Level Jacksonville Center
10:49AM 29.1133 -82.4458 345° North 368 423 40,000  Level Jacksonville Center
10:50AM 29.2158 -82.4811 343° North 368 423 40,000  Level Jacksonville Center
10:51AM 29.3181 -82.5114 346° North 368 423 40,000  Level Jacksonville Center
10:52AM 29.4206 -82.5419 345° North 373 429 40,000  Level Jacksonville Center
10:53AM 29.5208 -82.5750 344° North 378 435 40,000  Level Jacksonville Center
10:54AM 29.6231 -82.6058 345° North 378 435 40,000  Level Jacksonville Center
10:55AM 29.7233 -82.6367 345° North 378 435 40,000  Level Jacksonville Center
10:56AM 29.8258 -82.6747 342° North 378 435 40,000  Level Jacksonville Center
10:57AM 29.9219 -82.7033 346° North 366 421 40,000  Level Jacksonville Center
10:58AM 30.0181 -82.7367 343° North 360 414 40,000  Level Jacksonville Center
10:59AM 30.1078 -82.7606 347° North 360 414 40,000  Level Jacksonville Center
11:00AM 30.2081 -82.7917 345° North 360 414 40,000  Level Jacksonville Center
11:01AM 30.3042 -82.8228 344° North 360 414 40,000  Level Jacksonville Center
11:02AM 30.3981 -82.8517 345° North 360 414 40,000 480 Level Jacksonville Center
11:03AM 30.4919 -82.8806 345° North 355 409 41,000 900 Climbing Jacksonville Center
11:04AM 30.5944 -82.9192 342° North 355 409 41,900 600 Climbing Jacksonville Center
11:05AM 30.6717 -82.9458 343° North 350 403 42,300 420 Climbing Jacksonville Center
11:06AM 30.7822 -82.9772 346° North 356 410 42,800 300 Climbing Jacksonville Center
11:07AM 30.8950 -83.0161 344° North 368 423 43,000 60 Climbing Jacksonville Center
11:08AM 30.9992 -83.0500 344° North 378 435 43,000  Level Jacksonville Center
11:09AM 31.1078 -83.0842 345° North 384 442 43,000  Level Jacksonville Center
11:10AM 31.2164 -83.1208 344° North 395 455 43,000  Level Jacksonville Center
11:12AM 31.4517 -83.1992 344° North 397 457 43,000  Level Atlanta Center
11:13AM 31.5603 -83.2347 344° North 397 457 43,000  Level Atlanta Center
11:14AM 31.6669 -83.2678 345° North 397 457 43,000  Level Atlanta Center
11:15AM 31.7736 -83.3036 344° North 397 457 43,000  Level Atlanta Center
11:16AM 31.8825 -83.3419 343° North 397 457 43,000  Level Atlanta Center
11:17AM 31.9889 -83.3753 345° North 397 457 43,000  Level Atlanta Center
11:18AM 32.0978 -83.4136 343° North 397 457 43,000  Level Atlanta Center
11:19AM 32.2064 -83.4497 344° North 402 463 43,000  Level Atlanta Center
11:20AM 32.3194 -83.4883 344° North 402 463 43,000  Level Atlanta Center
11:21AM 32.4281 -83.5244 344° North 407 468 43,000  Level Atlanta Center
11:22AM 32.5389 -83.5633 344° North 407 468 43,000  Level Atlanta Center
11:23AM 32.6517 -83.5997 345° North 407 468 43,000  Level Atlanta Center
11:24AM 32.7644 -83.6411 343° North 412 474 43,000  Level Atlanta Center
11:25AM 32.8775 -83.6778 345° North 412 474 43,000  Level Atlanta Center
11:26AM 32.9881 -83.7144 344° North 417 480 43,000  Level Atlanta Center
11:27AM 33.1114 -83.7561 344° North 417 480 43,000  Level Atlanta Center
11:28AM 33.2178 -83.7956 343° North 417 480 43,000  Level Atlanta Center
11:29AM 33.3306 -83.8325 345° North 412 474 43,000  Level Atlanta Center
11:30AM 33.4414 -83.8694 344° North 417 480 43,000  Level Atlanta Center
11:31AM 33.5561 -83.9092 344° North 417 480 43,000  Level Atlanta Center
11:32AM 33.6669 -83.9464 344° North 417 480 43,000  Level Atlanta Center
11:33AM 33.7797 -83.9864 344° North 417 480 43,000  Level Atlanta Center
11:34AM 33.8922 -84.0239 345° North 417 480 43,000  Level Atlanta Center
11:35AM 34.0031 -84.0614 344° North 417 480 43,000  Level Atlanta Center
11:36AM 34.1114 -84.1017 343° North 417 480 43,000  Level Atlanta Center
11:37AM 34.2222 -84.1342 346° North 417 480 43,000  Level Atlanta Center
11:38AM 34.3369 -84.1569 351° North 417 480 43,000  Level Atlanta Center
11:39AM 34.4517 -84.1722 354° North 412 474 43,000  Level Atlanta Center
11:40AM 34.5517 -84.1850 354° North 407 468 43,000  Level Atlanta Center
11:41AM 34.6792 -84.2056 352° North 407 468 43,000  Level Atlanta Center
11:42AM 34.7792 -84.2183 354° North 407 468 43,000  Level Atlanta Center
11:43AM 34.8878 -84.2336 353° North 407 468 43,000  Level Atlanta Center
11:44AM 35.0067 -84.2517 353° North 401 461 43,000  Level Atlanta Center
11:45AM 35.1192 -84.2697 353° North 396 456 43,000  Level Atlanta Center
11:46AM 35.2297 -84.2881 352° North 396 456 43,000  Level Atlanta Center
11:47AM 35.3403 -84.3036 353° North 396 456 43,000  Level Atlanta Center
11:48AM 35.4531 -84.3192 354° North 396 456 43,000  Level Atlanta Center
11:49AM 35.5594 -84.3322 354° North 396 456 43,000  Level Atlanta Center
11:50AM 35.6719 -84.3506 352° North 396 456 43,000  Level Atlanta Center
11:51AM 35.7806 -84.3664 353° North 396 456 43,000  Level Atlanta Center
11:53AM 36.0453 -84.4044 353° North 399 459 43,000  Level Indianapolis Center
11:54AM 36.1553 -84.4219 353° North 401 461 43,000  Level Indianapolis Center
11:55AM 36.2667 -84.4378 353° North 402 463 43,000  Level Indianapolis Center
11:56AM 36.3792 -84.4550 353° North 406 467 43,000  Level Indianapolis Center
11:57AM 36.4900 -84.4714 353° North 404 465 43,000  Level Indianapolis Center
11:58AM 36.6122 -84.4892 353° North 406 467 43,000  Level Indianapolis Center
11:59AM 36.7397 -84.5078 353° North 412 474 43,000  Level Indianapolis Center
12:00PM 36.8528 -84.5256 353° North 411 473 43,000  Level Indianapolis Center
12:01PM 36.9658 -84.5431 353° North 410 472 43,000  Level Indianapolis Center
12:02PM 37.0700 -84.5594 353° North 413 475 43,000  Level Indianapolis Center
12:03PM 37.2053 -84.5786 354° North 415 478 43,000  Level Indianapolis Center
12:04PM 37.3222 -84.5972 353° North 421 484 43,000  Level Indianapolis Center
12:06PM 37.4375 -84.6156 353° North 417 480 43,000  Level Indianapolis Center
12:07PM 37.5533 -84.6325 353° North 417 480 43,000  Level Indianapolis Center
12:08PM 37.6672 -84.6525 352° North 414 476 43,000  Level Indianapolis Center
12:09PM 37.7828 -84.6697 353° North 416 479 43,000  Level Indianapolis Center
12:10PM 37.8972 -84.6875 353° North 413 475 43,000  Level Indianapolis Center
12:11PM 38.0133 -84.7058 353° North 418 481 43,000  Level Indianapolis Center
12:12PM 38.1503 -84.7247 354° North 429 494 43,000  Level Indianapolis Center
12:13PM 38.2650 -84.7436 353° North 414 476 43,000  Level Indianapolis Center
12:14PM 38.3814 -84.7606 353° North 418 481 43,000  Level Indianapolis Center
12:15PM 38.4986 -84.7794 353° North 421 484 43,000  Level Indianapolis Center
12:16PM 38.6139 -84.7978 353° North 416 479 43,000  Level Indianapolis Center
12:17PM 38.7350 -84.8172 353° North 420 483 43,000  Level Indianapolis Center
12:18PM 38.8514 -84.8372 352° North 420 483 43,100  Climbing Indianapolis Center
12:19PM 38.9769 -84.8569 353° North 423 487 43,000 -60 Descending Indianapolis Center
12:20PM 39.0933 -84.8758 353° North 420 483 43,000  Level Indianapolis Center
12:21PM 39.2000 -84.8928 353° North 416 479 43,000  Level Indianapolis Center
12:22PM 39.3350 -84.9150 353° North 416 479 43,000  Level Indianapolis Center
12:23PM 39.4494 -84.9333 353° North 415 478 43,000  Level Indianapolis Center
12:24PM 39.5656 -84.9528 353° North 417 480 43,000 -420 Level Indianapolis Center
12:25PM 39.6792 -84.9703 353° North 413 475 42,200 -1,200 Descending Indianapolis Center
12:26PM 39.7917 -84.9906 352° North 408 470 40,600 -1,800 Descending Indianapolis Center
12:27PM 39.9083 -85.0081 353° North 418 481 38,600 -1,980 Descending Indianapolis Center
12:28PM 40.0267 -85.0286 352° North 425 489 36,600 -1,980 Descending Indianapolis Center
12:29PM 40.1439 -85.0478 353° North 424 488 34,600 -2,160 Descending Indianapolis Center
12:30PM 40.2808 -85.0708 353° North 423 487 32,200 -1,260 Descending Indianapolis Center
12:31PM 40.3978 -85.0897 353° North 422 486 32,000 -120 Descending Indianapolis Center
12:32PM 40.5169 -85.1106 352° North 426 490 32,000  Level Indianapolis Center
12:33PM 40.6369 -85.1286 353° North 432 497 32,000  Level Indianapolis Center
12:34PM 40.7644 -85.1508 352° North 430 495 32,000  Level Chicago Center
12:35PM 40.8831 -85.1711 353° North 431 496 32,000  Level Chicago Center
12:36PM 41.0019 -85.1919 352° North 431 496 32,000 -660 Level Chicago Center
12:37PM 41.1189 -85.2103 353° North 427 491 30,700 -1,680 Descending Chicago Center
12:38PM 41.2319 -85.2308 352° North 415 478 28,600 -2,280 Descending Chicago Center
12:39PM 41.3700 -85.2547 353° North 417 480 26,100 -1,740 Descending Chicago Center
12:40PM 41.4864 -85.2742 353° North 422 486 25,100 -1,020 Descending Chicago Center
12:42PM 41.5978 -85.2950 352° North 415 478 24,000 -660 Descending Chicago Center
12:43PM 41.7086 -85.3147 352° North 417 480 23,800 -1,260 Descending Chicago Center
12:44PM 41.8392 -85.3375 353° North 401 461 21,500 -2,100 Descending Chicago Center
12:45PM 41.9494 -85.3578 352° North 402 463 19,500 -2,040 Descending Chicago Center
12:46PM 42.0633 -85.3775 353° North 385 443 17,300 -2,040 Descending Chicago Center
12:47PM 42.1614 -85.3942 353° North 361 415 15,300 -1,980 Descending Chicago Center
12:48PM 42.2614 -85.4136 352° North 362 417 13,300 -1,980 Descending Chicago Center
12:49PM 42.3550 -85.4286 353° North 346 398 11,300 -1,800 Descending Chicago Center
12:50PM 42.4392 -85.4439 352° North 310 357 9,700 -1,680 Descending Chicago Center
12:51PM 42.5108 -85.4747 342° North 278 320 7,900 -1,920 Descending Chicago Center
12:52PM 42.5944 -85.5158 340° North 269 310 5,800 -1,860 Descending Chicago Center
12:53PM 42.6628 -85.5489 340° North 262 302 4,100 -1,440 Descending Chicago Center
12:54PM 42.7328 -85.5842 340° North 268 308 2,900 -840 Descending Chicago Center
12:55PM 42.7933 -85.6061 345° North 240 276 2,400 -360 Descending Chicago Center
12:56PM 42.8494 -85.6153 353° North 220 253 2,200 -540 Descending Chicago Center
12:57PM 42.8722 -85.5814 47° Northeast 159 183 1,400 -600 Descending Chicago Center
12:58PM 42.8778 -85.5356 81° East 134 154 1,000 -420 Descending Chicago Center
01:00PM 42.8808 -85.5228 340° North  Level Estimated